createdAt,value
2018-11-20T00:00:44.127Z,23.70
2018-11-20T00:03:05.009Z,23.10
2018-11-20T00:05:25.797Z,19.73
2018-11-20T00:07:48.163Z,24.00
2018-11-20T00:10:19.080Z,22.00
2018-11-20T00:12:59.517Z,23.67
2018-11-20T00:15:15.111Z,23.77
2018-11-20T00:17:35.491Z,21.40
2018-11-20T00:20:09.625Z,21.10
2018-11-20T00:22:30.358Z,21.03
2018-11-20T00:24:45.479Z,26.20
2018-11-20T00:27:16.587Z,25.60
2018-11-20T00:29:48.276Z,22.60
2018-11-20T00:32:12.609Z,20.17
2018-11-20T00:34:28.331Z,22.83
2018-11-20T00:36:48.943Z,19.97
2018-11-20T00:39:09.746Z,20.33
2018-11-20T00:41:36.072Z,22.40
2018-11-20T00:44:04.260Z,23.33
2018-11-20T00:46:25.285Z,24.40
2018-11-20T00:48:46.035Z,24.87
2018-11-20T00:51:13.094Z,21.50
2018-11-20T00:53:47.419Z,24.10
2018-11-20T00:56:45.587Z,19.70
2018-11-20T00:59:07.748Z,23.00
2018-11-20T01:01:35.713Z,22.20
2018-11-20T01:04:00.870Z,24.93
2018-11-20T01:06:25.831Z,20.43
2018-11-20T01:08:39.713Z,23.07
2018-11-20T01:11:00.414Z,23.90
2018-11-20T01:13:19.167Z,24.60
2018-11-20T01:15:34.541Z,26.77
2018-11-20T01:17:53.699Z,29.60
2018-11-20T01:20:14.571Z,22.47
2018-11-20T01:22:39.504Z,25.87
2018-11-20T01:24:52.444Z,28.50
2018-11-20T01:27:26.029Z,26.10
2018-11-20T01:29:40.900Z,23.90
2018-11-20T01:32:03.075Z,22.53
2018-11-20T01:34:25.233Z,27.53
2018-11-20T01:36:47.391Z,23.10
2018-11-20T01:38:57.625Z,29.20
2018-11-20T01:41:18.336Z,27.10
2018-11-20T01:43:31.444Z,29.80
2018-11-20T01:45:43.545Z,24.70
2018-11-20T01:48:04.549Z,26.90
2018-11-20T01:50:26.724Z,33.63
2018-11-20T01:52:55.068Z,27.20
2018-11-20T01:55:28.935Z,31.73
2018-11-20T01:57:54.685Z,27.37
2018-11-20T02:00:09.647Z,26.27
2018-11-20T02:02:23.384Z,27.60
2018-11-20T02:04:44.308Z,28.73
2018-11-20T02:07:06.048Z,27.80
2018-11-20T02:09:26.682Z,25.40
2018-11-20T02:11:39.407Z,28.27
2018-11-20T02:13:59.610Z,28.60
2018-11-20T02:16:21.017Z,28.10
2018-11-20T02:18:41.912Z,33.07
2018-11-20T02:21:04.597Z,27.50
2018-11-20T02:23:28.236Z,31.43
2018-11-20T02:25:50.405Z,24.90
2018-11-20T02:28:15.512Z,28.33
2018-11-20T02:30:37.669Z,30.47
2018-11-20T02:33:11.096Z,32.13
2018-11-20T02:35:28.008Z,30.40
2018-11-20T02:37:49.157Z,27.07
2018-11-20T02:40:29.340Z,29.50
2018-11-20T02:43:00.624Z,30.97
2018-11-20T02:45:20.080Z,34.33
2018-11-20T02:47:40.993Z,28.60
2018-11-20T02:50:08.919Z,28.17
2018-11-20T02:52:29.856Z,25.83
2018-11-20T02:55:07.174Z,36.80
2018-11-20T02:57:28.212Z,32.70
2018-11-20T02:59:39.637Z,31.30
2018-11-20T03:02:04.511Z,29.73
2018-11-20T03:04:26.872Z,33.57
2018-11-20T03:06:55.217Z,27.93
2018-11-20T03:09:20.268Z,32.53
2018-11-20T03:11:36.223Z,31.83
2018-11-20T03:13:53.145Z,31.57
2018-11-20T03:16:13.865Z,34.57
2018-11-20T03:18:24.112Z,34.73
2018-11-20T03:20:37.732Z,31.83
2018-11-20T03:23:05.897Z,35.30
2018-11-20T03:26:11.083Z,32.43
2018-11-20T03:28:38.801Z,30.70
2018-11-20T03:31:21.888Z,40.40
2018-11-20T03:33:42.860Z,32.97
2018-11-20T03:35:59.902Z,29.43
2018-11-20T03:38:22.107Z,35.73
2018-11-20T03:40:42.764Z,28.47
2018-11-20T03:43:10.637Z,31.20
2018-11-20T03:45:39.732Z,32.87
2018-11-20T03:48:00.612Z,24.73
2018-11-20T03:50:17.451Z,36.10
2018-11-20T03:52:38.532Z,32.60
2018-11-20T03:55:09.603Z,33.53
2018-11-20T03:57:19.533Z,36.10
2018-11-20T03:59:47.205Z,38.13
2018-11-20T04:02:11.277Z,38.50
2018-11-20T04:04:39.656Z,42.07
2018-11-20T04:06:57.381Z,38.70
2018-11-20T04:09:22.790Z,31.50
2018-11-20T04:11:43.445Z,36.30
2018-11-20T04:14:04.129Z,40.40
2018-11-20T04:16:24.653Z,35.80
2018-11-20T04:18:45.364Z,35.53
2018-11-20T04:21:06.692Z,35.73
2018-11-20T04:23:27.473Z,33.80
2018-11-20T04:26:01.585Z,40.50
2018-11-20T04:28:18.002Z,36.77
2018-11-20T04:31:05.874Z,36.50
2018-11-20T04:33:49.803Z,40.30
2018-11-20T04:36:05.161Z,37.33
2018-11-20T04:38:20.932Z,40.93
2018-11-20T04:40:42.374Z,47.50
2018-11-20T04:43:02.026Z,41.83
2018-11-20T04:45:22.107Z,31.67
2018-11-20T04:47:42.716Z,41.90
2018-11-20T04:50:08.112Z,39.17
2018-11-20T04:52:29.066Z,37.77
2018-11-20T04:54:43.979Z,36.20
2018-11-20T04:57:04.906Z,35.80
2018-11-20T04:59:27.075Z,41.60
2018-11-20T05:01:49.894Z,34.60
2018-11-20T05:04:03.387Z,34.70
2018-11-20T05:06:24.274Z,36.67
2018-11-20T05:08:33.010Z,39.73
2018-11-20T05:11:01.187Z,37.63
2018-11-20T05:13:14.865Z,38.60
2018-11-20T05:15:35.423Z,34.60
2018-11-20T05:18:00.659Z,36.23
2018-11-20T05:20:31.900Z,36.90
2018-11-20T05:22:53.082Z,44.13
2018-11-20T05:25:12.438Z,35.07
2018-11-20T05:27:33.760Z,41.60
2018-11-20T05:29:54.676Z,40.47
2018-11-20T05:32:16.998Z,39.90
2018-11-20T05:34:39.141Z,36.60
2018-11-20T05:36:50.320Z,40.90
2018-11-20T05:39:15.188Z,37.80
2018-11-20T05:41:36.107Z,31.97
2018-11-20T05:43:52.703Z,43.67
2018-11-20T05:46:13.932Z,30.80
2018-11-20T05:48:31.132Z,33.17
2018-11-20T05:50:41.789Z,30.63
2018-11-20T05:52:54.401Z,31.70
2018-11-20T05:55:05.680Z,40.37
2018-11-20T05:57:31.499Z,35.27
2018-11-20T05:59:54.849Z,35.23
2018-11-20T06:02:15.781Z,35.03
2018-11-20T06:04:28.771Z,38.20
2018-11-20T06:06:49.390Z,35.47
2018-11-20T06:09:10.101Z,31.93
2018-11-20T06:11:30.795Z,31.80
2018-11-20T06:13:55.671Z,35.00
2018-11-20T06:16:14.820Z,37.40
2018-11-20T06:18:39.983Z,44.77
2018-11-20T06:21:00.935Z,43.23
2018-11-20T06:23:16.923Z,44.93
2018-11-20T06:25:30.046Z,50.17
2018-11-20T06:27:44.283Z,52.10
2018-11-20T06:30:05.168Z,43.97
2018-11-20T06:32:25.796Z,45.00
2018-11-20T06:34:53.704Z,47.70
2018-11-20T06:37:14.576Z,41.33
2018-11-20T06:39:35.206Z,60.23
2018-11-20T06:42:15.431Z,43.77
2018-11-20T06:47:01.113Z,48.90
2018-11-20T06:49:21.918Z,43.53
2018-11-20T06:51:42.595Z,46.93
2018-11-20T06:54:03.205Z,40.10
2018-11-20T06:56:23.833Z,54.23
2018-11-20T06:58:46.677Z,44.00
2018-11-20T07:01:01.612Z,60.73
2018-11-20T07:03:19.944Z,51.07
2018-11-20T07:05:40.809Z,49.63
2018-11-20T07:08:15.035Z,41.67
2018-11-20T07:10:49.056Z,40.40
2018-11-20T07:13:10.135Z,53.97
2018-11-20T07:15:30.978Z,58.87
2018-11-20T07:17:51.524Z,59.93
2018-11-20T07:20:22.373Z,52.20
2018-11-20T07:22:32.569Z,47.30
2018-11-20T07:24:53.442Z,46.57
2018-11-20T07:27:14.209Z,46.87
2018-11-20T07:29:45.934Z,51.03
2018-11-20T07:32:06.781Z,51.87
2018-11-20T07:34:43.966Z,57.17
2018-11-20T07:37:05.185Z,50.07
2018-11-20T07:39:39.116Z,49.17
2018-11-20T07:42:05.259Z,46.00
2018-11-20T07:44:27.428Z,46.00
2018-11-20T07:46:45.056Z,56.13
2018-11-20T07:49:06.120Z,49.10
2018-11-20T07:51:28.294Z,54.03
2018-11-20T07:53:50.502Z,49.70
2018-11-20T07:56:20.635Z,35.47
2018-11-20T07:58:34.599Z,37.30
2018-11-20T08:00:56.763Z,46.00
2018-11-20T08:03:11.227Z,49.77
2018-11-20T08:05:34.152Z,45.53
2018-11-20T08:07:56.316Z,35.70
2018-11-20T08:10:18.522Z,55.13
2018-11-20T08:12:29.828Z,41.03
2018-11-20T08:14:58.191Z,52.20
2018-11-20T08:17:20.373Z,36.23
2018-11-20T08:19:57.504Z,36.80
2018-11-20T08:22:28.796Z,47.83
2018-11-20T08:24:45.771Z,45.20
2018-11-20T08:27:05.252Z,45.87
2018-11-20T08:29:36.561Z,50.70
2018-11-20T08:31:57.448Z,46.90
2018-11-20T08:34:22.898Z,55.07
2018-11-20T08:36:47.933Z,48.00
2018-11-20T08:39:14.228Z,47.87
2018-11-20T08:41:54.656Z,38.87
2018-11-20T08:44:26.006Z,42.13
2018-11-20T08:46:48.217Z,39.63
2018-11-20T08:49:09.040Z,39.70
2018-11-20T08:51:21.792Z,42.30
2018-11-20T08:53:46.998Z,34.70
2018-11-20T08:56:14.350Z,41.50
2018-11-20T08:58:25.358Z,43.73
2018-11-20T09:00:45.845Z,40.37
2018-11-20T09:03:06.832Z,43.20
2018-11-20T09:05:24.236Z,40.90
2018-11-20T09:07:51.914Z,39.00
2018-11-20T09:10:15.403Z,41.27
2018-11-20T09:12:36.593Z,29.33
2018-11-20T09:15:01.947Z,44.73
2018-11-20T09:17:30.384Z,41.23
2018-11-20T09:19:51.205Z,66.07
2018-11-20T09:22:12.023Z,37.80
2018-11-20T09:24:27.134Z,44.00
2018-11-20T09:26:52.065Z,43.23
2018-11-20T09:29:19.866Z,38.97
2018-11-20T09:31:40.385Z,40.87
2018-11-20T09:34:01.497Z,36.30
2018-11-20T09:36:14.434Z,44.20
2018-11-20T09:38:33.057Z,35.83
2018-11-20T09:41:07.136Z,39.57
2018-11-20T09:43:38.566Z,40.13
2018-11-20T09:46:17.968Z,45.73
2018-11-20T09:48:30.972Z,39.40
2018-11-20T09:51:00.042Z,35.90
2018-11-20T09:53:20.908Z,37.53
2018-11-20T09:55:45.800Z,32.03
2018-11-20T09:58:01.755Z,33.53
2018-11-20T10:00:39.772Z,37.80
2018-11-20T10:02:53.588Z,41.03
2018-11-20T10:05:23.925Z,29.83
2018-11-20T10:07:52.398Z,37.37
2018-11-20T10:10:13.418Z,37.43
2018-11-20T10:12:27.363Z,37.53
2018-11-20T10:14:48.463Z,39.00
2018-11-20T10:17:04.448Z,37.13
2018-11-20T10:19:25.113Z,39.57
2018-11-20T10:21:45.808Z,33.10
2018-11-20T10:24:13.635Z,34.80
2018-11-20T10:26:35.805Z,31.70
2018-11-20T10:28:58.985Z,34.77
2018-11-20T10:31:20.029Z,35.00
2018-11-20T10:33:44.306Z,35.57
2018-11-20T10:35:56.684Z,33.73
2018-11-20T10:38:17.865Z,32.97
2018-11-20T10:40:37.700Z,36.47
2018-11-20T10:43:30.629Z,34.43
2018-11-20T10:45:54.951Z,37.57
2018-11-20T10:48:22.043Z,38.13
2018-11-20T10:50:42.401Z,31.53
2018-11-20T10:52:53.475Z,29.57
2018-11-20T10:55:14.036Z,38.30
2018-11-20T10:57:29.649Z,33.43
2018-11-20T11:00:09.007Z,34.30
2018-11-20T11:02:29.245Z,34.97
2018-11-20T11:04:49.275Z,36.57
2018-11-20T11:06:55.450Z,38.50
2018-11-20T11:09:15.333Z,31.97
2018-11-20T11:11:39.742Z,34.50
2018-11-20T11:14:10.333Z,31.70
2018-11-20T11:16:30.189Z,37.03
2018-11-20T11:18:52.830Z,33.90
2018-11-20T11:21:10.993Z,41.50
2018-11-20T11:23:28.773Z,26.70
2018-11-20T11:25:48.725Z,33.63
2018-11-20T11:28:10.122Z,30.43
2018-11-20T11:30:37.360Z,38.00
2018-11-20T11:33:07.431Z,34.90
2018-11-20T11:35:27.614Z,38.60
2018-11-20T11:38:07.430Z,38.50
2018-11-20T11:40:34.160Z,34.33
2018-11-20T11:42:59.823Z,31.23
2018-11-20T11:45:18.192Z,34.03
2018-11-20T11:47:30.064Z,38.37
2018-11-20T11:49:52.222Z,30.93
2018-11-20T11:52:25.318Z,31.93
2018-11-20T11:54:44.435Z,33.90
2018-11-20T11:57:05.542Z,32.40
2018-11-20T11:59:25.564Z,33.17
2018-11-20T12:03:50.235Z,29.20
2018-11-20T12:06:03.347Z,26.00
2018-11-20T12:08:24.783Z,35.47
2018-11-20T12:10:51.808Z,34.50
2018-11-20T12:13:28.718Z,32.33
2018-11-20T12:15:49.141Z,28.50
2018-11-20T12:18:04.594Z,33.83
2018-11-20T12:20:17.811Z,34.90
2018-11-20T12:22:33.895Z,31.83
2018-11-20T12:25:01.386Z,43.20
2018-11-20T12:27:34.410Z,34.60
2018-11-20T12:29:55.491Z,33.70
2018-11-20T12:32:14.858Z,34.40
2018-11-20T12:34:56.681Z,33.97
2018-11-20T12:37:14.508Z,29.17
2018-11-20T12:39:34.590Z,32.03
2018-11-20T12:42:04.953Z,32.90
2018-11-20T12:44:18.103Z,39.67
2018-11-20T12:46:44.683Z,38.00
2018-11-20T12:49:19.088Z,33.50
2018-11-20T12:51:38.093Z,30.20
2018-11-20T12:53:54.345Z,32.73
2018-11-20T12:56:14.025Z,33.70
2018-11-20T12:58:38.337Z,37.63
2018-11-20T13:00:50.298Z,41.07
2018-11-20T13:03:10.348Z,40.70
2018-11-20T13:05:23.087Z,32.50
2018-11-20T13:07:47.086Z,33.73
2018-11-20T13:10:12.111Z,36.57
2018-11-20T13:12:43.207Z,33.80
2018-11-20T13:15:07.448Z,40.90
2018-11-20T13:17:22.155Z,35.80
2018-11-20T13:19:42.255Z,32.33
2018-11-20T13:21:53.714Z,42.23
2018-11-20T13:24:18.209Z,37.07
2018-11-20T13:26:38.473Z,40.00
2018-11-20T13:28:58.598Z,36.23
2018-11-20T13:31:38.167Z,42.83
2018-11-20T13:34:20.660Z,33.80
2018-11-20T13:36:34.574Z,36.80
2018-11-20T13:38:55.978Z,35.83
2018-11-20T13:42:07.203Z,41.40
2018-11-20T13:44:28.612Z,33.60
2018-11-20T13:46:48.483Z,36.17
2018-11-20T13:49:08.366Z,33.43
2018-11-20T13:51:28.241Z,36.40
2018-11-20T13:53:55.763Z,41.70
2018-11-20T13:56:15.897Z,32.97
2018-11-20T13:58:32.670Z,42.47
2018-11-20T14:00:59.906Z,33.50
2018-11-20T14:03:18.661Z,36.00
2018-11-20T14:05:35.059Z,33.93
2018-11-20T14:07:55.141Z,29.97
2018-11-20T14:10:16.542Z,33.13
2018-11-20T14:12:36.564Z,30.60
2018-11-20T14:14:47.652Z,39.80
2018-11-20T14:17:08.711Z,41.03
2018-11-20T14:19:21.756Z,35.70
2018-11-20T14:21:41.806Z,36.10
2018-11-20T14:23:54.639Z,29.67
2018-11-20T14:26:11.240Z,33.43
2018-11-20T14:28:32.646Z,46.93
2018-11-20T14:31:09.219Z,32.77
2018-11-20T14:33:29.222Z,32.40
2018-11-20T14:35:49.088Z,32.87
2018-11-20T14:38:12.367Z,33.60
2018-11-20T14:40:24.647Z,41.53
2018-11-20T14:42:36.527Z,36.50
2018-11-20T14:44:48.326Z,32.93
2018-11-20T14:47:27.752Z,39.40
2018-11-20T14:49:48.184Z,32.97
2018-11-20T14:52:12.190Z,37.70
2018-11-20T14:54:39.287Z,52.23
2018-11-20T14:56:48.705Z,41.60
2018-11-20T14:59:09.074Z,47.47
2018-11-20T15:01:29.137Z,41.70
2018-11-20T15:03:49.576Z,43.07
2018-11-20T15:06:09.577Z,47.13
2018-11-20T15:08:27.813Z,46.07
2018-11-20T15:10:47.705Z,47.33
2018-11-20T15:13:01.101Z,44.83
2018-11-20T15:15:26.115Z,44.53
2018-11-20T15:17:46.027Z,38.70
2018-11-20T15:20:06.923Z,50.30
2018-11-20T15:22:28.350Z,37.80
2018-11-20T15:24:52.830Z,42.20
2018-11-20T15:27:13.187Z,39.40
2018-11-20T15:29:33.474Z,50.60
2018-11-20T15:32:04.206Z,47.47
2018-11-20T15:34:40.780Z,53.00
2018-11-20T15:37:03.122Z,43.93
2018-11-20T15:39:15.747Z,48.70
2018-11-20T15:41:35.822Z,41.87
2018-11-20T15:43:51.375Z,56.87
2018-11-20T15:46:12.799Z,72.50
2018-11-20T15:48:28.926Z,57.00
2018-11-20T15:50:39.531Z,49.57
2018-11-20T15:52:51.148Z,55.00
2018-11-20T15:55:11.183Z,49.40
2018-11-20T15:57:31.295Z,49.57
2018-11-20T15:59:59.774Z,46.40
2018-11-20T16:02:19.645Z,49.43
2018-11-20T16:04:39.729Z,52.07
2018-11-20T16:07:01.791Z,51.10
2018-11-20T16:09:13.865Z,63.77
2018-11-20T16:11:37.938Z,56.60
2018-11-20T16:13:58.104Z,46.90
2018-11-20T16:16:12.921Z,56.10
2018-11-20T16:18:36.998Z,53.50
2018-11-20T16:20:57.127Z,51.13
2018-11-20T16:23:24.432Z,67.37
2018-11-20T16:25:44.355Z,56.43
2018-11-20T16:28:08.590Z,53.90
2018-11-20T16:30:36.101Z,55.83
2018-11-20T16:32:56.634Z,56.30
2018-11-20T16:35:16.765Z,48.00
2018-11-20T16:37:36.831Z,57.33
2018-11-20T16:40:08.548Z,56.73
2018-11-20T16:42:33.998Z,58.17
2018-11-20T16:45:10.543Z,57.13
2018-11-20T16:47:30.374Z,55.63
2018-11-20T16:49:56.739Z,29.07
2018-11-20T16:52:17.176Z,52.20
2018-11-20T16:54:38.573Z,57.67
2018-11-20T16:57:18.177Z,54.47
2018-11-20T16:59:48.529Z,55.80
2018-11-20T17:02:08.182Z,57.90
2018-11-20T17:04:28.278Z,56.23
2018-11-20T17:07:01.822Z,65.20
2018-11-20T17:09:31.157Z,50.50
2018-11-20T17:11:43.349Z,54.00
2018-11-20T17:14:06.114Z,53.03
2018-11-20T17:16:33.454Z,67.70
2018-11-20T17:18:53.349Z,55.50
2018-11-20T17:21:18.135Z,55.83
2018-11-20T17:23:54.686Z,55.23
2018-11-20T17:26:16.148Z,59.00
2018-11-20T17:28:36.338Z,56.63
2018-11-20T17:31:03.742Z,49.10
2018-11-20T17:33:23.622Z,53.23
2018-11-20T17:35:47.906Z,53.23
2018-11-20T17:38:27.352Z,51.73
2018-11-20T17:40:57.791Z,50.93
2018-11-20T17:43:15.406Z,57.87
2018-11-20T17:45:35.332Z,51.33
2018-11-20T17:47:54.551Z,53.77
2018-11-20T17:50:05.920Z,52.30
2018-11-20T17:52:36.428Z,49.50
2018-11-20T17:54:59.922Z,60.10
2018-11-20T17:57:36.262Z,63.03
2018-11-20T18:00:10.098Z,42.13
2018-11-20T18:02:25.162Z,50.67
2018-11-20T18:04:58.477Z,49.17
2018-11-20T18:07:31.801Z,54.20
2018-11-20T18:09:47.218Z,52.83
2018-11-20T18:12:07.038Z,49.15
2018-11-20T18:14:28.438Z,46.83
2018-11-20T18:16:58.745Z,48.23
2018-11-20T18:19:16.259Z,48.77
2018-11-20T18:21:33.892Z,43.20
2018-11-20T18:23:49.125Z,44.33
2018-11-20T18:26:05.008Z,44.10
2018-11-20T18:28:23.398Z,50.88
2018-11-20T18:30:47.767Z,50.05
2018-11-20T18:33:12.481Z,39.00
2018-11-20T18:35:32.922Z,48.33
2018-11-20T18:37:50.927Z,51.70
2018-11-20T18:40:19.373Z,47.98
2018-11-20T18:42:39.306Z,52.80
2018-11-20T18:44:59.361Z,47.23
2018-11-20T18:47:19.857Z,48.37
2018-11-20T18:49:40.070Z,42.77
2018-11-20T18:51:58.246Z,55.67
2018-11-20T18:54:11.269Z,45.63
2018-11-20T18:56:36.164Z,52.62
2018-11-20T18:59:09.637Z,41.07
2018-11-20T19:01:25.089Z,47.08
2018-11-20T19:03:43.012Z,52.85
2018-11-20T19:05:57.617Z,47.65
2018-11-20T19:08:17.913Z,56.50
2018-11-20T19:10:38.410Z,48.27
2018-11-20T19:13:05.122Z,47.57
2018-11-20T19:15:25.600Z,45.90
2018-11-20T19:18:02.227Z,47.47
2018-11-20T19:20:15.358Z,55.05
2018-11-20T19:22:28.996Z,43.97
2018-11-20T19:24:49.169Z,49.50
2018-11-20T19:27:21.758Z,50.45
2018-11-20T19:29:45.922Z,49.05
2018-11-20T19:32:05.738Z,50.28
2018-11-20T19:34:22.903Z,53.40
2018-11-20T19:36:43.096Z,45.33
2018-11-20T19:39:03.298Z,52.17
2018-11-20T19:41:26.424Z,51.55
2018-11-20T19:43:47.351Z,54.15
2018-11-20T19:46:23.678Z,53.40
2018-11-20T19:48:44.221Z,48.57
2018-11-20T19:51:11.298Z,47.30
2018-11-20T19:53:25.996Z,52.07
2018-11-20T19:55:56.324Z,66.63
2018-11-20T19:58:16.391Z,52.70
2018-11-20T20:00:46.991Z,50.23
2018-11-20T20:03:08.652Z,54.63
2018-11-20T20:05:34.765Z,36.90
2018-11-20T20:07:47.910Z,44.73
2018-11-20T20:10:20.124Z,56.00
2018-11-20T20:12:45.882Z,49.35
2018-11-20T20:14:58.214Z,46.03
2018-11-20T20:17:19.613Z,53.63
2018-11-20T20:19:39.654Z,61.28
2018-11-20T20:21:59.962Z,50.80
2018-11-20T20:24:20.198Z,59.00
2018-11-20T20:26:47.792Z,50.65
2018-11-20T20:29:07.654Z,54.57
2018-11-20T20:31:38.033Z,47.03
2018-11-20T20:34:01.692Z,58.28
2018-11-20T20:36:21.063Z,54.57
2018-11-20T20:38:42.456Z,57.33
2018-11-20T20:41:03.863Z,63.53
2018-11-20T20:43:16.910Z,57.17
2018-11-20T20:45:38.305Z,57.13
2018-11-20T20:48:04.839Z,57.63
2018-11-20T20:50:26.599Z,56.43
2018-11-20T20:52:43.933Z,58.05
2018-11-20T20:55:04.011Z,49.60
2018-11-20T20:57:14.138Z,73.28
2018-11-20T20:59:29.199Z,63.70
2018-11-20T21:01:49.414Z,57.13
2018-11-20T21:04:03.827Z,58.60
2018-11-20T21:06:30.301Z,64.70
2018-11-20T21:08:50.455Z,48.98
2018-11-20T21:11:18.770Z,64.53
2018-11-20T21:13:30.632Z,53.70
2018-11-20T21:15:59.917Z,64.10
2018-11-20T21:18:18.206Z,59.67
2018-11-20T21:20:48.322Z,64.93
2018-11-20T21:23:08.139Z,58.63
2018-11-20T21:25:35.535Z,65.40
2018-11-20T21:27:48.022Z,63.20
2018-11-20T21:30:13.041Z,69.90
2018-11-20T21:32:33.026Z,59.90
2018-11-20T21:35:09.085Z,62.37
2018-11-20T21:37:39.486Z,64.40
2018-11-20T21:40:00.084Z,70.75
2018-11-20T21:42:15.780Z,70.93
2018-11-20T21:44:35.845Z,72.17
2018-11-20T21:46:49.066Z,61.50
2018-11-20T21:49:18.371Z,69.70
2018-11-20T21:51:42.438Z,74.00
2018-11-20T21:53:53.533Z,67.70
2018-11-20T21:56:08.678Z,80.90
2018-11-20T21:58:28.842Z,67.92
2018-11-20T22:00:52.125Z,75.65
2018-11-20T22:03:13.041Z,78.10
2018-11-20T22:05:33.145Z,80.60
2018-11-20T22:07:44.714Z,70.72
2018-11-20T22:10:11.873Z,81.27
2018-11-20T22:12:31.825Z,72.07
2018-11-20T22:14:53.221Z,75.13
2018-11-20T22:17:29.602Z,73.60
2018-11-20T22:20:09.026Z,77.30
2018-11-20T22:22:28.933Z,77.95
2018-11-20T22:24:49.034Z,76.07
2018-11-20T22:27:22.586Z,81.30
2018-11-20T22:29:44.005Z,73.30
2018-11-20T22:32:04.021Z,82.30
2018-11-20T22:34:24.029Z,74.22
2018-11-20T22:36:48.325Z,80.57
2018-11-20T22:38:58.424Z,85.60
2018-11-20T22:41:18.438Z,84.43
2018-11-20T22:43:37.564Z,83.87
2018-11-20T22:46:17.243Z,90.33
2018-11-20T22:48:41.445Z,79.93
2018-11-20T22:51:02.847Z,72.40
2018-11-20T22:53:22.869Z,86.12
2018-11-20T22:55:43.006Z,81.45
2018-11-20T22:58:09.546Z,79.32
2018-11-20T23:00:40.020Z,83.03
2018-11-20T23:03:01.446Z,89.20
2018-11-20T23:05:18.059Z,85.87
2018-11-20T23:07:38.242Z,83.47
2018-11-20T23:09:40.234Z,88.00
2018-11-20T23:11:41.965Z,82.00
2018-11-20T23:13:43.701Z,80.07
2018-11-20T23:15:45.429Z,87.97
2018-11-20T23:17:47.157Z,79.73
2018-11-20T23:19:49.211Z,73.83
2018-11-20T23:21:51.266Z,87.43
2018-11-20T23:23:52.985Z,87.00
2018-11-20T23:25:54.762Z,81.00
2018-11-20T23:27:56.793Z,78.03
2018-11-20T23:29:59.297Z,91.37
2018-11-20T23:32:01.234Z,81.93
2018-11-20T23:34:03.339Z,77.35
2018-11-20T23:36:05.285Z,103.53
2018-11-20T23:38:07.015Z,86.47
2018-11-20T23:40:09.985Z,71.60
2018-11-20T23:42:11.717Z,85.13
2018-11-20T23:44:13.434Z,76.50
2018-11-20T23:46:15.493Z,77.00
2018-11-20T23:48:17.469Z,88.27
2018-11-20T23:50:19.201Z,73.87
2018-11-20T23:52:20.959Z,81.13
2018-11-20T23:54:22.680Z,95.93
2018-11-20T23:56:24.637Z,96.80
2018-11-20T23:58:26.376Z,75.60
